Terminal Aerodrome Forecast
Issued by NWS

Home | Current Version | Previous Version | Text Only | Print | Product List | Glossary Off
Versions: 1 2 3 4 5 6 7 8 9 10 11 12 13 14 15 16 17 18 19 20 21

251
FTUS43 KABR 241026 AAA
TAFPIR
TAF AMD
KPIR 241026Z 2410/2506 04013G21KT P6SM -SHRA OVC015
     FM241500 01016G28KT P6SM -SHRA OVC008
     FM241700 36015G23KT P6SM -SHRA OVC015
     FM242100 35012KT P6SM BKN015
     FM250100 33008KT P6SM SCT040=

USA.gov is the U.S. government's official web portal to all federal, state and local government web resources and services.